sensor_id;sensor_type;location;lat;lon;timestamp;temperature;humidity
39621;DHT22;25309;48.686;9.170;2022-12-07T00:01:20;4.80;99.90
39621;DHT22;25309;48.686;9.170;2022-12-07T00:03:48;4.90;99.90
39621;DHT22;25309;48.686;9.170;2022-12-07T00:06:17;4.80;99.90
39621;DHT22;25309;48.686;9.170;2022-12-07T00:08:45;4.80;99.90
39621;DHT22;25309;48.686;9.170;2022-12-07T00:11:13;4.80;99.90
39621;DHT22;25309;48.686;9.170;2022-12-07T00:13:41;4.80;99.90
39621;DHT22;25309;48.686;9.170;2022-12-07T00:16:10;4.80;99.90
39621;DHT22;25309;48.686;9.170;2022-12-07T00:18:38;4.80;99.90
39621;DHT22;25309;48.686;9.170;2022-12-07T00:21:07;4.80;99.90
39621;DHT22;25309;48.686;9.170;2022-12-07T00:23:36;4.70;99.90
39621;DHT22;25309;48.686;9.170;2022-12-07T00:26:05;4.70;99.90
39621;DHT22;25309;48.686;9.170;2022-12-07T00:28:32;4.70;99.90
39621;DHT22;25309;48.686;9.170;2022-12-07T00:31:02;4.60;99.90
39621;DHT22;25309;48.686;9.170;2022-12-07T00:33:29;4.60;99.90
39621;DHT22;25309;48.686;9.170;2022-12-07T00:35:58;4.60;99.90
39621;DHT22;25309;48.686;9.170;2022-12-07T00:38:28;4.70;99.90
39621;DHT22;25309;48.686;9.170;2022-12-07T00:40:59;4.70;99.90
39621;DHT22;25309;48.686;9.170;2022-12-07T00:43:27;4.70;99.90
39621;DHT22;25309;48.686;9.170;2022-12-07T00:45:54;4.70;99.90
39621;DHT22;25309;48.686;9.170;2022-12-07T00:48:22;4.70;99.90
39621;DHT22;25309;48.686;9.170;2022-12-07T00:50:49;4.70;99.90
39621;DHT22;25309;48.686;9.170;2022-12-07T00:53:18;4.70;99.90
39621;DHT22;25309;48.686;9.170;2022-12-07T00:55:46;4.70;99.90
39621;DHT22;25309;48.686;9.170;2022-12-07T00:58:13;4.80;99.90
39621;DHT22;25309;48.686;9.170;2022-12-07T01:00:41;4.70;99.90
39621;DHT22;25309;48.686;9.170;2022-12-07T01:03:10;4.70;99.90
39621;DHT22;25309;48.686;9.170;2022-12-07T01:05:38;4.70;99.90
39621;DHT22;25309;48.686;9.170;2022-12-07T01:08:05;4.70;99.90
39621;DHT22;25309;48.686;9.170;2022-12-07T01:10:34;4.70;99.90
39621;DHT22;25309;48.686;9.170;2022-12-07T01:13:00;4.70;99.90
39621;DHT22;25309;48.686;9.170;2022-12-07T01:15:27;4.70;99.90
39621;DHT22;25309;48.686;9.170;2022-12-07T01:17:54;4.70;99.90
39621;DHT22;25309;48.686;9.170;2022-12-07T01:20:22;4.70;99.90
39621;DHT22;25309;48.686;9.170;2022-12-07T01:22:49;4.70;99.90
39621;DHT22;25309;48.686;9.170;2022-12-07T01:25:16;4.70;99.90
39621;DHT22;25309;48.686;9.170;2022-12-07T01:27:44;4.70;99.90
39621;DHT22;25309;48.686;9.170;2022-12-07T01:30:12;4.70;99.90
39621;DHT22;25309;48.686;9.170;2022-12-07T01:32:39;4.70;99.90
39621;DHT22;25309;48.686;9.170;2022-12-07T01:35:07;4.70;99.90
39621;DHT22;25309;48.686;9.170;2022-12-07T01:37:35;4.70;99.90
39621;DHT22;25309;48.686;9.170;2022-12-07T01:40:03;4.70;99.90
39621;DHT22;25309;48.686;9.170;2022-12-07T01:42:30;4.80;99.90
39621;DHT22;25309;48.686;9.170;2022-12-07T01:48:15;4.80;99.90
39621;DHT22;25309;48.686;9.170;2022-12-07T01:50:45;4.70;99.90
39621;DHT22;25309;48.686;9.170;2022-12-07T01:53:14;4.70;99.90
39621;DHT22;25309;48.686;9.170;2022-12-07T01:55:44;4.70;99.90
39621;DHT22;25309;48.686;9.170;2022-12-07T01:58:13;4.70;99.90
39621;DHT22;25309;48.686;9.170;2022-12-07T02:00:41;4.70;99.90
39621;DHT22;25309;48.686;9.170;2022-12-07T02:03:11;4.60;99.90
39621;DHT22;25309;48.686;9.170;2022-12-07T02:05:41;4.60;99.90
39621;DHT22;25309;48.686;9.170;2022-12-07T02:08:11;4.60;99.90
39621;DHT22;25309;48.686;9.170;2022-12-07T02:10:38;4.60;99.90
39621;DHT22;25309;48.686;9.170;2022-12-07T02:13:09;4.60;99.90
39621;DHT22;25309;48.686;9.170;2022-12-07T02:15:59;4.60;99.90
39621;DHT22;25309;48.686;9.170;2022-12-07T02:18:38;4.70;99.90
39621;DHT22;25309;48.686;9.170;2022-12-07T02:21:12;4.70;99.90
39621;DHT22;25309;48.686;9.170;2022-12-07T02:27:02;4.70;99.90
39621;DHT22;25309;48.686;9.170;2022-12-07T02:29:37;4.60;99.90
39621;DHT22;25309;48.686;9.170;2022-12-07T02:32:10;4.50;99.90
39621;DHT22;25309;48.686;9.170;2022-12-07T02:34:46;4.50;99.90
39621;DHT22;25309;48.686;9.170;2022-12-07T02:37:22;4.60;99.90
39621;DHT22;25309;48.686;9.170;2022-12-07T02:39:55;4.60;99.90
39621;DHT22;25309;48.686;9.170;2022-12-07T02:42:30;4.60;99.90
39621;DHT22;25309;48.686;9.170;2022-12-07T02:45:01;4.60;99.90
39621;DHT22;25309;48.686;9.170;2022-12-07T02:47:29;4.50;99.90
39621;DHT22;25309;48.686;9.170;2022-12-07T02:49:58;4.50;99.90
39621;DHT22;25309;48.686;9.170;2022-12-07T02:52:26;4.50;99.90
39621;DHT22;25309;48.686;9.170;2022-12-07T02:54:53;4.50;99.90
39621;DHT22;25309;48.686;9.170;2022-12-07T02:57:29;4.50;99.90
39621;DHT22;25309;48.686;9.170;2022-12-07T03:00:05;4.50;99.90
39621;DHT22;25309;48.686;9.170;2022-12-07T03:02:44;4.40;99.90
39621;DHT22;25309;48.686;9.170;2022-12-07T03:08:23;4.40;99.90
39621;DHT22;25309;48.686;9.170;2022-12-07T03:10:58;4.40;99.90
39621;DHT22;25309;48.686;9.170;2022-12-07T03:13:30;4.40;99.90
39621;DHT22;25309;48.686;9.170;2022-12-07T03:16:05;4.40;99.90
39621;DHT22;25309;48.686;9.170;2022-12-07T03:18:38;4.40;99.90
39621;DHT22;25309;48.686;9.170;2022-12-07T03:21:11;4.40;99.90
39621;DHT22;25309;48.686;9.170;2022-12-07T03:23:42;4.40;99.90
39621;DHT22;25309;48.686;9.170;2022-12-07T03:26:12;4.40;99.90
39621;DHT22;25309;48.686;9.170;2022-12-07T03:28:45;4.40;99.90
39621;DHT22;25309;48.686;9.170;2022-12-07T03:31:18;4.40;99.90
39621;DHT22;25309;48.686;9.170;2022-12-07T03:33:50;4.40;99.90
39621;DHT22;25309;48.686;9.170;2022-12-07T03:36:23;4.40;99.90
39621;DHT22;25309;48.686;9.170;2022-12-07T03:38:57;4.40;99.90
39621;DHT22;25309;48.686;9.170;2022-12-07T03:41:28;4.30;99.90
39621;DHT22;25309;48.686;9.170;2022-12-07T03:43:56;4.30;99.90
39621;DHT22;25309;48.686;9.170;2022-12-07T03:46:32;4.30;99.90
39621;DHT22;25309;48.686;9.170;2022-12-07T03:49:07;4.30;99.90
39621;DHT22;25309;48.686;9.170;2022-12-07T03:51:42;4.30;99.90
39621;DHT22;25309;48.686;9.170;2022-12-07T03:54:13;4.30;99.90
39621;DHT22;25309;48.686;9.170;2022-12-07T03:56:43;4.30;99.90
39621;DHT22;25309;48.686;9.170;2022-12-07T03:59:12;4.30;99.90
39621;DHT22;25309;48.686;9.170;2022-12-07T04:01:43;4.30;99.90
39621;DHT22;25309;48.686;9.170;2022-12-07T04:04:10;4.30;99.90
39621;DHT22;25309;48.686;9.170;2022-12-07T04:06:37;4.20;99.90
39621;DHT22;25309;48.686;9.170;2022-12-07T04:09:04;4.20;99.90
39621;DHT22;25309;48.686;9.170;2022-12-07T04:11:31;4.20;99.90
39621;DHT22;25309;48.686;9.170;2022-12-07T04:13:58;4.20;99.90
39621;DHT22;25309;48.686;9.170;2022-12-07T04:16:45;4.10;99.90
39621;DHT22;25309;48.686;9.170;2022-12-07T04:19:13;4.10;99.90
39621;DHT22;25309;48.686;9.170;2022-12-07T04:21:40;4.10;99.90
39621;DHT22;25309;48.686;9.170;2022-12-07T04:24:07;4.10;99.90
39621;DHT22;25309;48.686;9.170;2022-12-07T04:26:34;4.10;99.90
39621;DHT22;25309;48.686;9.170;2022-12-07T04:29:01;4.10;99.90
39621;DHT22;25309;48.686;9.170;2022-12-07T04:31:33;4.10;99.90
39621;DHT22;25309;48.686;9.170;2022-12-07T04:34:02;4.10;99.90
39621;DHT22;25309;48.686;9.170;2022-12-07T04:36:30;4.10;99.90
39621;DHT22;25309;48.686;9.170;2022-12-07T04:38:57;4.00;99.90
39621;DHT22;25309;48.686;9.170;2022-12-07T04:41:25;4.00;99.90
39621;DHT22;25309;48.686;9.170;2022-12-07T04:43:55;4.00;99.90
39621;DHT22;25309;48.686;9.170;2022-12-07T04:46:23;3.90;99.90
39621;DHT22;25309;48.686;9.170;2022-12-07T04:48:51;3.90;99.90
39621;DHT22;25309;48.686;9.170;2022-12-07T04:51:22;3.90;99.90
39621;DHT22;25309;48.686;9.170;2022-12-07T04:53:49;3.90;99.90
39621;DHT22;25309;48.686;9.170;2022-12-07T04:56:17;3.90;99.90
39621;DHT22;25309;48.686;9.170;2022-12-07T04:58:45;3.90;99.90
39621;DHT22;25309;48.686;9.170;2022-12-07T05:01:13;3.90;99.90
39621;DHT22;25309;48.686;9.170;2022-12-07T05:03:40;3.90;99.90
39621;DHT22;25309;48.686;9.170;2022-12-07T05:06:08;3.80;99.90
39621;DHT22;25309;48.686;9.170;2022-12-07T05:08:41;3.70;99.90
39621;DHT22;25309;48.686;9.170;2022-12-07T05:11:10;3.60;99.90
39621;DHT22;25309;48.686;9.170;2022-12-07T05:13:57;3.50;99.90
39621;DHT22;25309;48.686;9.170;2022-12-07T05:16:24;3.40;99.90
39621;DHT22;25309;48.686;9.170;2022-12-07T05:18:51;3.40;99.90
39621;DHT22;25309;48.686;9.170;2022-12-07T05:21:18;3.40;99.90
39621;DHT22;25309;48.686;9.170;2022-12-07T05:23:46;3.40;99.90
39621;DHT22;25309;48.686;9.170;2022-12-07T05:26:13;3.30;99.90
39621;DHT22;25309;48.686;9.170;2022-12-07T05:28:40;3.30;99.90
39621;DHT22;25309;48.686;9.170;2022-12-07T05:31:07;3.20;99.90
39621;DHT22;25309;48.686;9.170;2022-12-07T05:33:34;3.20;99.90
39621;DHT22;25309;48.686;9.170;2022-12-07T05:36:02;3.20;99.90
39621;DHT22;25309;48.686;9.170;2022-12-07T05:38:32;3.10;99.90
39621;DHT22;25309;48.686;9.170;2022-12-07T05:41:02;3.10;99.90
39621;DHT22;25309;48.686;9.170;2022-12-07T05:43:29;3.00;99.90
39621;DHT22;25309;48.686;9.170;2022-12-07T05:45:57;3.10;99.90
39621;DHT22;25309;48.686;9.170;2022-12-07T05:48:25;3.10;99.90
39621;DHT22;25309;48.686;9.170;2022-12-07T05:50:52;3.10;99.90
39621;DHT22;25309;48.686;9.170;2022-12-07T05:53:19;3.10;99.90
39621;DHT22;25309;48.686;9.170;2022-12-07T05:55:49;3.10;99.90
39621;DHT22;25309;48.686;9.170;2022-12-07T05:58:17;3.20;99.90
39621;DHT22;25309;48.686;9.170;2022-12-07T06:01:03;3.20;99.90
39621;DHT22;25309;48.686;9.170;2022-12-07T06:03:30;3.20;99.90
39621;DHT22;25309;48.686;9.170;2022-12-07T06:05:57;3.20;99.90
39621;DHT22;25309;48.686;9.170;2022-12-07T06:08:24;3.20;99.90
39621;DHT22;25309;48.686;9.170;2022-12-07T06:10:51;3.10;99.90
39621;DHT22;25309;48.686;9.170;2022-12-07T06:13:39;3.10;99.90
39621;DHT22;25309;48.686;9.170;2022-12-07T06:16:12;3.20;99.90
39621;DHT22;25309;48.686;9.170;2022-12-07T06:18:39;3.20;99.90
39621;DHT22;25309;48.686;9.170;2022-12-07T06:21:06;3.20;99.90
39621;DHT22;25309;48.686;9.170;2022-12-07T06:23:33;3.20;99.90
39621;DHT22;25309;48.686;9.170;2022-12-07T06:26:00;3.20;99.90
39621;DHT22;25309;48.686;9.170;2022-12-07T06:28:27;3.20;99.90
39621;DHT22;25309;48.686;9.170;2022-12-07T06:30:58;3.20;99.90
39621;DHT22;25309;48.686;9.170;2022-12-07T06:33:26;3.20;99.90
39621;DHT22;25309;48.686;9.170;2022-12-07T06:35:53;3.20;99.90
39621;DHT22;25309;48.686;9.170;2022-12-07T06:38:20;3.30;99.90
39621;DHT22;25309;48.686;9.170;2022-12-07T06:40:47;3.30;99.90
39621;DHT22;25309;48.686;9.170;2022-12-07T06:43:15;3.40;99.90
39621;DHT22;25309;48.686;9.170;2022-12-07T06:45:42;3.30;99.90
39621;DHT22;25309;48.686;9.170;2022-12-07T06:48:11;3.30;99.90
39621;DHT22;25309;48.686;9.170;2022-12-07T06:50:38;3.30;99.90
39621;DHT22;25309;48.686;9.170;2022-12-07T06:53:05;3.30;99.90
39621;DHT22;25309;48.686;9.170;2022-12-07T06:55:32;3.30;99.90
39621;DHT22;25309;48.686;9.170;2022-12-07T06:57:59;3.30;99.90
39621;DHT22;25309;48.686;9.170;2022-12-07T07:00:26;3.20;99.90
39621;DHT22;25309;48.686;9.170;2022-12-07T07:02:53;3.10;99.90
39621;DHT22;25309;48.686;9.170;2022-12-07T07:05:21;3.10;99.90
39621;DHT22;25309;48.686;9.170;2022-12-07T07:07:49;3.10;99.90
39621;DHT22;25309;48.686;9.170;2022-12-07T07:10:36;3.10;99.90
39621;DHT22;25309;48.686;9.170;2022-12-07T07:13:03;3.10;99.90
39621;DHT22;25309;48.686;9.170;2022-12-07T07:15:31;3.00;99.90
39621;DHT22;25309;48.686;9.170;2022-12-07T07:17:58;2.90;99.90
39621;DHT22;25309;48.686;9.170;2022-12-07T07:20:34;2.90;99.90
39621;DHT22;25309;48.686;9.170;2022-12-07T07:23:02;3.00;99.90
39621;DHT22;25309;48.686;9.170;2022-12-07T07:25:29;3.10;99.90
39621;DHT22;25309;48.686;9.170;2022-12-07T07:27:56;3.10;99.90
39621;DHT22;25309;48.686;9.170;2022-12-07T07:30:23;3.10;99.90
39621;DHT22;25309;48.686;9.170;2022-12-07T07:32:51;3.10;99.90
39621;DHT22;25309;48.686;9.170;2022-12-07T07:35:18;3.20;99.90
39621;DHT22;25309;48.686;9.170;2022-12-07T07:37:46;3.10;99.90
39621;DHT22;25309;48.686;9.170;2022-12-07T07:40:13;3.10;99.90
39621;DHT22;25309;48.686;9.170;2022-12-07T07:42:40;3.20;99.90
39621;DHT22;25309;48.686;9.170;2022-12-07T07:45:08;3.20;99.90
39621;DHT22;25309;48.686;9.170;2022-12-07T07:47:35;3.20;99.90
39621;DHT22;25309;48.686;9.170;2022-12-07T07:50:02;3.20;99.90
39621;DHT22;25309;48.686;9.170;2022-12-07T07:52:31;3.20;99.90
39621;DHT22;25309;48.686;9.170;2022-12-07T07:54:59;3.20;99.90
39621;DHT22;25309;48.686;9.170;2022-12-07T07:57:26;3.20;99.90
39621;DHT22;25309;48.686;9.170;2022-12-07T07:59:53;3.20;99.90
39621;DHT22;25309;48.686;9.170;2022-12-07T08:02:21;3.20;99.90
39621;DHT22;25309;48.686;9.170;2022-12-07T08:04:49;3.30;99.90
39621;DHT22;25309;48.686;9.170;2022-12-07T08:07:16;3.30;99.90
39621;DHT22;25309;48.686;9.170;2022-12-07T08:09:43;3.30;99.90
39621;DHT22;25309;48.686;9.170;2022-12-07T08:12:11;3.30;99.90
39621;DHT22;25309;48.686;9.170;2022-12-07T08:14:38;3.30;99.90
39621;DHT22;25309;48.686;9.170;2022-12-07T08:17:05;3.20;99.90
39621;DHT22;25309;48.686;9.170;2022-12-07T08:19:32;3.30;99.90
39621;DHT22;25309;48.686;9.170;2022-12-07T08:21:59;3.30;99.90
39621;DHT22;25309;48.686;9.170;2022-12-07T08:24:26;3.30;99.90
39621;DHT22;25309;48.686;9.170;2022-12-07T08:26:53;3.30;99.90
39621;DHT22;25309;48.686;9.170;2022-12-07T08:29:22;3.30;99.90
39621;DHT22;25309;48.686;9.170;2022-12-07T08:31:49;3.30;99.90
39621;DHT22;25309;48.686;9.170;2022-12-07T08:34:16;3.30;99.90
39621;DHT22;25309;48.686;9.170;2022-12-07T08:36:43;3.30;99.90
39621;DHT22;25309;48.686;9.170;2022-12-07T08:39:09;3.30;99.90
39621;DHT22;25309;48.686;9.170;2022-12-07T08:41:56;3.40;99.90
39621;DHT22;25309;48.686;9.170;2022-12-07T08:44:25;3.30;99.90
39621;DHT22;25309;48.686;9.170;2022-12-07T08:46:55;3.40;99.90
39621;DHT22;25309;48.686;9.170;2022-12-07T08:49:25;3.40;99.90
39621;DHT22;25309;48.686;9.170;2022-12-07T08:51:55;3.50;99.90
39621;DHT22;25309;48.686;9.170;2022-12-07T08:54:22;3.50;99.90
39621;DHT22;25309;48.686;9.170;2022-12-07T08:56:50;3.50;99.90
39621;DHT22;25309;48.686;9.170;2022-12-07T08:59:26;3.50;99.90
39621;DHT22;25309;48.686;9.170;2022-12-07T09:01:54;3.60;99.90
39621;DHT22;25309;48.686;9.170;2022-12-07T09:04:21;3.70;99.90
39621;DHT22;25309;48.686;9.170;2022-12-07T09:06:48;3.80;99.90
39621;DHT22;25309;48.686;9.170;2022-12-07T09:09:15;3.80;99.90
39621;DHT22;25309;48.686;9.170;2022-12-07T09:11:42;3.80;99.90
39621;DHT22;25309;48.686;9.170;2022-12-07T09:14:11;3.90;99.90
39621;DHT22;25309;48.686;9.170;2022-12-07T09:16:40;3.90;99.90
39621;DHT22;25309;48.686;9.170;2022-12-07T09:19:07;3.90;99.90
39621;DHT22;25309;48.686;9.170;2022-12-07T09:21:34;3.90;99.90
39621;DHT22;25309;48.686;9.170;2022-12-07T09:24:02;3.90;99.90
39621;DHT22;25309;48.686;9.170;2022-12-07T09:26:29;3.90;99.90
39621;DHT22;25309;48.686;9.170;2022-12-07T09:28:56;4.00;99.90
39621;DHT22;25309;48.686;9.170;2022-12-07T09:31:23;4.10;99.90
39621;DHT22;25309;48.686;9.170;2022-12-07T09:33:55;4.20;99.90
39621;DHT22;25309;48.686;9.170;2022-12-07T09:36:22;4.30;99.90
39621;DHT22;25309;48.686;9.170;2022-12-07T09:38:49;4.30;99.90
39621;DHT22;25309;48.686;9.170;2022-12-07T09:41:16;4.30;99.90
39621;DHT22;25309;48.686;9.170;2022-12-07T09:43:43;4.30;99.90
39621;DHT22;25309;48.686;9.170;2022-12-07T09:46:15;4.30;99.90
39621;DHT22;25309;48.686;9.170;2022-12-07T09:48:44;4.30;99.90
39621;DHT22;25309;48.686;9.170;2022-12-07T09:51:16;4.30;99.90
39621;DHT22;25309;48.686;9.170;2022-12-07T09:53:49;4.20;99.90
39621;DHT22;25309;48.686;9.170;2022-12-07T09:56:18;4.20;99.90
39621;DHT22;25309;48.686;9.170;2022-12-07T09:58:46;4.20;99.90
39621;DHT22;25309;48.686;9.170;2022-12-07T10:01:15;4.30;99.90
39621;DHT22;25309;48.686;9.170;2022-12-07T10:03:47;4.40;99.90
39621;DHT22;25309;48.686;9.170;2022-12-07T10:06:16;4.40;99.90
39621;DHT22;25309;48.686;9.170;2022-12-07T10:08:43;4.50;99.90
39621;DHT22;25309;48.686;9.170;2022-12-07T10:11:11;4.50;99.90
39621;DHT22;25309;48.686;9.170;2022-12-07T10:13:40;4.50;99.90
39621;DHT22;25309;48.686;9.170;2022-12-07T10:16:31;4.60;99.90
39621;DHT22;25309;48.686;9.170;2022-12-07T10:19:18;4.60;99.90
39621;DHT22;25309;48.686;9.170;2022-12-07T10:22:02;4.70;99.90
39621;DHT22;25309;48.686;9.170;2022-12-07T10:24:29;4.60;99.90
39621;DHT22;25309;48.686;9.170;2022-12-07T10:26:57;4.60;99.90
39621;DHT22;25309;48.686;9.170;2022-12-07T10:29:29;4.70;99.90
39621;DHT22;25309;48.686;9.170;2022-12-07T10:31:58;4.70;99.90
39621;DHT22;25309;48.686;9.170;2022-12-07T10:34:26;4.80;99.90
39621;DHT22;25309;48.686;9.170;2022-12-07T10:37:15;4.90;99.90
39621;DHT22;25309;48.686;9.170;2022-12-07T10:39:46;4.90;99.90
39621;DHT22;25309;48.686;9.170;2022-12-07T10:42:18;5.00;99.90
39621;DHT22;25309;48.686;9.170;2022-12-07T10:44:46;5.00;99.90
39621;DHT22;25309;48.686;9.170;2022-12-07T10:47:25;5.00;99.90
39621;DHT22;25309;48.686;9.170;2022-12-07T10:50:17;5.00;99.90
39621;DHT22;25309;48.686;9.170;2022-12-07T10:55:54;4.90;99.90
39621;DHT22;25309;48.686;9.170;2022-12-07T11:01:21;4.90;99.90
39621;DHT22;25309;48.686;9.170;2022-12-07T11:04:02;4.90;99.90
39621;DHT22;25309;48.686;9.170;2022-12-07T11:06:34;4.90;99.90
39621;DHT22;25309;48.686;9.170;2022-12-07T11:09:24;4.90;99.90
39621;DHT22;25309;48.686;9.170;2022-12-07T11:12:24;4.90;99.90
39621;DHT22;25309;48.686;9.170;2022-12-07T11:14:58;5.00;99.90
39621;DHT22;25309;48.686;9.170;2022-12-07T11:17:34;5.00;99.90
39621;DHT22;25309;48.686;9.170;2022-12-07T11:20:15;5.10;99.90
39621;DHT22;25309;48.686;9.170;2022-12-07T11:22:51;5.10;99.90
39621;DHT22;25309;48.686;9.170;2022-12-07T11:25:30;5.10;99.90
39621;DHT22;25309;48.686;9.170;2022-12-07T11:28:11;5.00;99.90
39621;DHT22;25309;48.686;9.170;2022-12-07T11:30:48;5.00;99.90
39621;DHT22;25309;48.686;9.170;2022-12-07T11:33:22;5.00;99.90
39621;DHT22;25309;48.686;9.170;2022-12-07T11:36:00;5.00;99.90
39621;DHT22;25309;48.686;9.170;2022-12-07T11:38:34;5.10;99.90
39621;DHT22;25309;48.686;9.170;2022-12-07T11:41:06;5.10;99.90
39621;DHT22;25309;48.686;9.170;2022-12-07T11:43:53;5.10;99.90
39621;DHT22;25309;48.686;9.170;2022-12-07T11:46:25;5.10;99.90
39621;DHT22;25309;48.686;9.170;2022-12-07T11:48:58;5.20;99.90
39621;DHT22;25309;48.686;9.170;2022-12-07T11:51:30;5.20;99.90
39621;DHT22;25309;48.686;9.170;2022-12-07T11:54:03;5.20;99.90
39621;DHT22;25309;48.686;9.170;2022-12-07T11:56:35;5.10;99.90
39621;DHT22;25309;48.686;9.170;2022-12-07T11:59:10;5.20;99.90
39621;DHT22;25309;48.686;9.170;2022-12-07T12:01:50;5.20;99.90
39621;DHT22;25309;48.686;9.170;2022-12-07T12:04:31;5.30;99.90
39621;DHT22;25309;48.686;9.170;2022-12-07T12:07:01;5.30;99.90
39621;DHT22;25309;48.686;9.170;2022-12-07T12:09:51;5.30;99.90
39621;DHT22;25309;48.686;9.170;2022-12-07T12:16:07;5.40;99.90
39621;DHT22;25309;48.686;9.170;2022-12-07T12:18:54;5.50;99.90
39621;DHT22;25309;48.686;9.170;2022-12-07T12:21:27;5.40;99.90
39621;DHT22;25309;48.686;9.170;2022-12-07T12:23:57;5.40;99.90
39621;DHT22;25309;48.686;9.170;2022-12-07T12:26:28;5.40;99.90
39621;DHT22;25309;48.686;9.170;2022-12-07T12:28:58;5.30;99.90
39621;DHT22;25309;48.686;9.170;2022-12-07T12:31:34;5.30;99.90
39621;DHT22;25309;48.686;9.170;2022-12-07T12:34:04;5.30;99.90
39621;DHT22;25309;48.686;9.170;2022-12-07T12:36:52;5.30;99.90
39621;DHT22;25309;48.686;9.170;2022-12-07T12:39:19;5.30;99.90
39621;DHT22;25309;48.686;9.170;2022-12-07T12:41:52;5.30;99.90
39621;DHT22;25309;48.686;9.170;2022-12-07T12:44:41;5.40;99.90
39621;DHT22;25309;48.686;9.170;2022-12-07T12:47:52;5.40;99.90
39621;DHT22;25309;48.686;9.170;2022-12-07T12:50:22;5.40;99.90
39621;DHT22;25309;48.686;9.170;2022-12-07T12:53:02;5.40;99.90
39621;DHT22;25309;48.686;9.170;2022-12-07T12:59:24;5.40;99.90
39621;DHT22;25309;48.686;9.170;2022-12-07T13:01:54;5.40;99.90
39621;DHT22;25309;48.686;9.170;2022-12-07T13:04:38;5.40;99.90
39621;DHT22;25309;48.686;9.170;2022-12-07T13:07:11;5.40;99.90
39621;DHT22;25309;48.686;9.170;2022-12-07T13:09:44;5.40;99.90
39621;DHT22;25309;48.686;9.170;2022-12-07T13:12:13;5.40;99.90
39621;DHT22;25309;48.686;9.170;2022-12-07T13:14:51;5.40;99.90
39621;DHT22;25309;48.686;9.170;2022-12-07T13:20:50;5.30;99.90
39621;DHT22;25309;48.686;9.170;2022-12-07T13:23:27;5.30;99.90
39621;DHT22;25309;48.686;9.170;2022-12-07T13:26:02;5.40;99.90
39621;DHT22;25309;48.686;9.170;2022-12-07T13:28:37;5.40;99.90
39621;DHT22;25309;48.686;9.170;2022-12-07T13:31:31;5.40;99.90
39621;DHT22;25309;48.686;9.170;2022-12-07T13:33:59;5.40;99.90
39621;DHT22;25309;48.686;9.170;2022-12-07T13:36:29;5.40;99.90
39621;DHT22;25309;48.686;9.170;2022-12-07T13:39:16;5.40;99.90
39621;DHT22;25309;48.686;9.170;2022-12-07T13:41:50;5.40;99.90
39621;DHT22;25309;48.686;9.170;2022-12-07T13:44:19;5.50;99.90
39621;DHT22;25309;48.686;9.170;2022-12-07T13:46:52;5.50;99.90
39621;DHT22;25309;48.686;9.170;2022-12-07T13:49:23;5.50;99.90
39621;DHT22;25309;48.686;9.170;2022-12-07T13:51:51;5.50;99.90
39621;DHT22;25309;48.686;9.170;2022-12-07T13:54:19;5.50;99.90
39621;DHT22;25309;48.686;9.170;2022-12-07T13:56:50;5.50;99.90
39621;DHT22;25309;48.686;9.170;2022-12-07T13:59:19;5.50;99.90
39621;DHT22;25309;48.686;9.170;2022-12-07T14:01:48;5.50;99.90
39621;DHT22;25309;48.686;9.170;2022-12-07T14:04:26;5.40;99.90
39621;DHT22;25309;48.686;9.170;2022-12-07T14:06:54;5.50;99.90
39621;DHT22;25309;48.686;9.170;2022-12-07T14:09:23;5.40;99.90
39621;DHT22;25309;48.686;9.170;2022-12-07T14:11:57;5.50;99.90
39621;DHT22;25309;48.686;9.170;2022-12-07T14:14:26;5.50;99.90
39621;DHT22;25309;48.686;9.170;2022-12-07T14:17:12;5.50;99.90
39621;DHT22;25309;48.686;9.170;2022-12-07T14:19:49;5.50;99.90
39621;DHT22;25309;48.686;9.170;2022-12-07T14:22:29;5.50;99.90
39621;DHT22;25309;48.686;9.170;2022-12-07T14:25:02;5.50;99.90
39621;DHT22;25309;48.686;9.170;2022-12-07T14:27:48;5.50;99.90
39621;DHT22;25309;48.686;9.170;2022-12-07T14:30:16;5.40;99.90
39621;DHT22;25309;48.686;9.170;2022-12-07T14:32:44;5.50;99.90
39621;DHT22;25309;48.686;9.170;2022-12-07T14:35:16;5.50;99.90
39621;DHT22;25309;48.686;9.170;2022-12-07T14:37:46;5.40;99.90
39621;DHT22;25309;48.686;9.170;2022-12-07T14:40:15;5.40;99.90
39621;DHT22;25309;48.686;9.170;2022-12-07T14:42:46;5.40;99.90
39621;DHT22;25309;48.686;9.170;2022-12-07T14:45:15;5.40;99.90
39621;DHT22;25309;48.686;9.170;2022-12-07T14:47:44;5.40;99.90
39621;DHT22;25309;48.686;9.170;2022-12-07T14:50:36;5.40;99.90
39621;DHT22;25309;48.686;9.170;2022-12-07T14:53:07;5.40;99.90
39621;DHT22;25309;48.686;9.170;2022-12-07T14:55:51;5.40;99.90
39621;DHT22;25309;48.686;9.170;2022-12-07T14:58:20;5.40;99.90
39621;DHT22;25309;48.686;9.170;2022-12-07T15:00:47;5.40;99.90
39621;DHT22;25309;48.686;9.170;2022-12-07T15:03:15;5.40;99.90
39621;DHT22;25309;48.686;9.170;2022-12-07T15:05:42;5.40;99.90
39621;DHT22;25309;48.686;9.170;2022-12-07T15:08:10;5.40;99.90
39621;DHT22;25309;48.686;9.170;2022-12-07T15:10:38;5.40;99.90
39621;DHT22;25309;48.686;9.170;2022-12-07T15:13:06;5.30;99.90
39621;DHT22;25309;48.686;9.170;2022-12-07T15:15:54;5.30;99.90
39621;DHT22;25309;48.686;9.170;2022-12-07T15:18:23;5.30;99.90
39621;DHT22;25309;48.686;9.170;2022-12-07T15:20:50;5.30;99.90
39621;DHT22;25309;48.686;9.170;2022-12-07T15:23:18;5.30;99.90
39621;DHT22;25309;48.686;9.170;2022-12-07T15:25:46;5.30;99.90
39621;DHT22;25309;48.686;9.170;2022-12-07T15:28:14;5.30;99.90
39621;DHT22;25309;48.686;9.170;2022-12-07T15:30:43;5.30;99.90
39621;DHT22;25309;48.686;9.170;2022-12-07T15:33:12;5.30;99.90
39621;DHT22;25309;48.686;9.170;2022-12-07T15:35:40;5.30;99.90
39621;DHT22;25309;48.686;9.170;2022-12-07T15:38:07;5.20;99.90
39621;DHT22;25309;48.686;9.170;2022-12-07T15:40:35;5.30;99.90
39621;DHT22;25309;48.686;9.170;2022-12-07T15:43:02;5.20;99.90
39621;DHT22;25309;48.686;9.170;2022-12-07T15:45:29;5.20;99.90
39621;DHT22;25309;48.686;9.170;2022-12-07T15:47:56;5.10;99.90
39621;DHT22;25309;48.686;9.170;2022-12-07T15:50:44;5.10;99.90
39621;DHT22;25309;48.686;9.170;2022-12-07T15:53:11;5.10;99.90
39621;DHT22;25309;48.686;9.170;2022-12-07T15:55:38;5.00;99.90
39621;DHT22;25309;48.686;9.170;2022-12-07T15:58:05;5.00;99.90
39621;DHT22;25309;48.686;9.170;2022-12-07T16:00:32;5.00;99.90
39621;DHT22;25309;48.686;9.170;2022-12-07T16:03:00;5.00;99.90
39621;DHT22;25309;48.686;9.170;2022-12-07T16:05:27;5.00;99.90
39621;DHT22;25309;48.686;9.170;2022-12-07T16:07:55;4.90;99.90
39621;DHT22;25309;48.686;9.170;2022-12-07T16:10:22;4.90;99.90
39621;DHT22;25309;48.686;9.170;2022-12-07T16:12:49;4.90;99.90
39621;DHT22;25309;48.686;9.170;2022-12-07T16:15:16;4.90;99.90
39621;DHT22;25309;48.686;9.170;2022-12-07T16:17:50;4.90;99.90
39621;DHT22;25309;48.686;9.170;2022-12-07T16:20:17;4.90;99.90
39621;DHT22;25309;48.686;9.170;2022-12-07T16:22:44;4.90;99.90
39621;DHT22;25309;48.686;9.170;2022-12-07T16:25:12;4.90;99.90
39621;DHT22;25309;48.686;9.170;2022-12-07T16:27:39;4.80;99.90
39621;DHT22;25309;48.686;9.170;2022-12-07T16:30:07;4.80;99.90
39621;DHT22;25309;48.686;9.170;2022-12-07T16:32:34;4.70;99.90
39621;DHT22;25309;48.686;9.170;2022-12-07T16:35:01;4.70;99.90